Time;durP1;ratioP1;P1;durP2;ratioP2;P2;SDS_P1;SDS_P2;PMS_P1;PMS_P2;Temp;Humidity;BMP_temperature;BMP_pressure;BME280_temperature;BME280_humidity;BME280_pressure;Samples;Min_cycle;Max_cycle;Signal;HPM_P1;HPM_P2
2023/07/01 00:01:24;;;;;;;3.72;1.42;;;15.60;99.90;;;;;;4955630;28;20413;-63
2023/07/01 00:03:50;;;;;;;2.08;1.27;;;15.60;99.90;;;;;;4928062;28;20130;-63
2023/07/01 00:06:15;;;;;;;3.40;1.67;;;15.60;99.90;;;;;;4961757;28;20440;-63
2023/07/01 00:08:41;;;;;;;4.32;1.63;;;15.70;99.90;;;;;;4966303;28;20114;-65
2023/07/01 00:11:07;;;;;;;4.10;1.75;;;15.60;99.90;;;;;;4955489;28;20061;-62
2023/07/01 00:13:34;;;;;;;3.63;1.63;;;15.70;99.90;;;;;;4958615;28;20034;-61
2023/07/01 00:15:59;;;;;;;2.35;1.35;;;15.70;99.90;;;;;;4965893;28;20046;-63
2023/07/01 00:18:26;;;;;;;2.47;1.67;;;15.70;99.90;;;;;;4949105;28;20070;-63
2023/07/01 00:20:51;;;;;;;4.47;1.73;;;15.70;99.90;;;;;;4953274;28;20066;-63
2023/07/01 00:23:17;;;;;;;5.90;1.52;;;15.70;99.90;;;;;;4950150;28;20094;-62
2023/07/01 00:25:43;;;;;;;4.88;2.30;;;15.80;99.90;;;;;;4956547;28;20037;-63
2023/07/01 00:28:09;;;;;;;4.95;1.80;;;15.70;99.90;;;;;;4955971;28;20082;-63
2023/07/01 00:30:34;;;;;;;1.83;1.60;;;15.70;99.90;;;;;;4943052;28;20030;-64
2023/07/01 00:33:01;;;;;;;3.20;1.67;;;15.70;99.90;;;;;;4941501;28;20035;-63
2023/07/01 00:35:26;;;;;;;2.53;1.15;;;15.70;99.90;;;;;;4950862;28;20026;-64
2023/07/01 00:37:52;;;;;;;2.90;1.77;;;15.70;99.90;;;;;;4954101;28;20089;-64
2023/07/01 00:40:18;;;;;;;4.68;1.40;;;15.70;99.90;;;;;;4954261;28;20476;-63
2023/07/01 00:42:45;;;;;;;3.47;1.55;;;15.70;99.90;;;;;;4956214;28;20042;-64
2023/07/01 00:45:11;;;;;;;2.72;1.88;;;15.70;99.90;;;;;;4953222;28;20063;-62
2023/07/01 00:47:40;;;;;;;3.70;2.00;;;15.60;99.90;;;;;;4950892;28;20031;-63
2023/07/01 00:50:10;;;;;;;3.90;1.60;;;15.60;99.90;;;;;;4953857;28;20023;-63
2023/07/01 00:52:37;;;;;;;3.70;1.48;;;15.70;99.90;;;;;;4952875;28;20106;-66
2023/07/01 00:55:03;;;;;;;2.10;1.35;;;15.60;99.90;;;;;;4954800;28;20128;-63
2023/07/01 00:57:28;;;;;;;2.83;1.48;;;15.70;99.90;;;;;;4952815;28;20022;-63
2023/07/01 00:59:54;;;;;;;2.55;1.20;;;15.70;99.90;;;;;;4958653;28;20407;-65
2023/07/01 01:02:25;;;;;;;3.50;1.40;;;15.70;99.90;;;;;;4949833;28;20027;-63
2023/07/01 01:05:10;;;;;;;2.28;1.42;;;15.80;99.90;;;;;;4932694;28;20047;-63
2023/07/01 01:07:51;;;;;;;2.05;1.58;;;15.70;99.90;;;;;;4949578;28;20018;-63
2023/07/01 01:10:24;;;;;;;2.03;1.23;;;15.80;99.90;;;;;;4955989;28;20031;-64
2023/07/01 01:12:57;;;;;;;2.42;1.35;;;15.90;99.90;;;;;;4952255;28;20042;-64
2023/07/01 01:15:25;;;;;;;3.95;2.15;;;15.80;99.90;;;;;;4960837;28;20481;-65
2023/07/01 01:17:55;;;;;;;2.42;1.50;;;15.90;99.90;;;;;;4957259;28;20086;-65
2023/07/01 01:20:22;;;;;;;1.67;1.25;;;15.90;99.90;;;;;;4954197;28;20086;-64
2023/07/01 01:23:01;;;;;;;2.33;1.40;;;15.90;99.90;;;;;;4958342;28;20023;-63
2023/07/01 01:25:42;;;;;;;3.80;0.93;;;15.90;99.90;;;;;;4958360;28;20086;-63
2023/07/01 01:28:09;;;;;;;2.55;1.27;;;15.90;99.90;;;;;;4955671;28;20047;-63
2023/07/01 01:30:35;;;;;;;6.32;1.42;;;15.90;99.90;;;;;;4958809;28;20041;-63
2023/07/01 01:33:02;;;;;;;5.05;1.42;;;15.90;99.90;;;;;;4956010;28;20039;-65
2023/07/01 01:35:28;;;;;;;3.33;1.67;;;15.90;99.90;;;;;;4953512;28;20113;-63
2023/07/01 01:38:02;;;;;;;3.35;1.30;;;15.90;99.90;;;;;;4954539;28;20097;-64
2023/07/01 01:40:45;;;;;;;4.50;1.70;;;15.90;99.90;;;;;;4953767;28;20047;-63
2023/07/01 01:43:30;;;;;;;2.55;1.27;;;16.00;99.90;;;;;;4954787;28;20059;-63
2023/07/01 01:45:56;;;;;;;1.83;1.30;;;15.90;99.90;;;;;;4958746;28;20023;-63
2023/07/01 01:48:23;;;;;;;2.45;1.23;;;15.90;99.90;;;;;;4951875;28;20038;-64
2023/07/01 01:50:50;;;;;;;7.30;1.98;;;15.90;99.90;;;;;;4955301;28;20039;-63
2023/07/01 01:53:18;;;;;;;4.05;1.48;;;16.00;99.90;;;;;;4959613;28;20400;-64
2023/07/01 01:55:44;;;;;;;3.17;1.67;;;15.90;99.90;;;;;;4955750;28;20035;-63
2023/07/01 01:58:10;;;;;;;4.63;1.30;;;16.00;99.90;;;;;;4953174;28;20149;-65
2023/07/01 02:00:36;;;;;;;2.60;1.70;;;16.00;99.90;;;;;;4940118;28;20396;-64
2023/07/01 02:03:02;;;;;;;3.80;1.30;;;16.00;99.90;;;;;;4934000;28;20039;-61
2023/07/01 02:05:27;;;;;;;1.70;1.45;;;16.00;99.90;;;;;;4937385;28;20039;-64
2023/07/01 02:07:53;;;;;;;4.00;1.67;;;16.00;99.90;;;;;;4935561;28;20043;-62
2023/07/01 02:10:19;;;;;;;2.47;1.42;;;16.00;99.90;;;;;;4936014;28;21718;-63
2023/07/01 02:12:46;;;;;;;3.33;1.60;;;16.00;99.90;;;;;;4955623;28;20121;-64
2023/07/01 02:15:11;;;;;;;3.40;2.17;;;16.00;99.90;;;;;;4951117;28;20045;-65
2023/07/01 02:17:37;;;;;;;2.85;1.30;;;16.00;99.90;;;;;;4953833;28;20397;-63
2023/07/01 02:20:04;;;;;;;3.88;1.42;;;16.00;99.90;;;;;;4951763;28;20105;-63
2023/07/01 02:22:29;;;;;;;1.88;1.33;;;16.00;99.90;;;;;;4959177;28;20415;-65
2023/07/01 02:24:55;;;;;;;2.92;1.15;;;16.00;99.90;;;;;;4960681;28;20027;-63
2023/07/01 02:27:22;;;;;;;3.83;1.55;;;16.10;99.90;;;;;;4961401;28;20038;-64
2023/07/01 02:29:48;;;;;;;3.15;1.60;;;16.00;99.90;;;;;;4959650;28;20477;-59
2023/07/01 02:32:13;;;;;;;5.25;1.42;;;16.10;99.90;;;;;;4964609;28;20109;-64
2023/07/01 02:34:39;;;;;;;5.88;1.95;;;16.10;99.90;;;;;;4971045;28;20023;-58
2023/07/01 02:37:05;;;;;;;3.45;1.65;;;16.10;99.90;;;;;;4972366;28;20566;-64
2023/07/01 02:39:30;;;;;;;3.47;1.80;;;16.10;99.90;;;;;;4959267;28;20038;-66
2023/07/01 02:41:56;;;;;;;4.22;1.50;;;16.20;99.90;;;;;;4964014;28;20484;-64
2023/07/01 02:44:21;;;;;;;2.60;1.77;;;16.20;99.90;;;;;;4957601;28;20022;-64
2023/07/01 02:46:47;;;;;;;6.00;1.63;;;16.30;99.90;;;;;;4957896;28;20069;-64
2023/07/01 02:49:12;;;;;;;5.55;1.60;;;16.30;99.90;;;;;;4968141;28;20062;-66
2023/07/01 02:51:38;;;;;;;2.70;1.30;;;16.30;99.90;;;;;;4972217;28;20074;-62
2023/07/01 02:54:04;;;;;;;2.95;1.20;;;16.30;99.90;;;;;;4963839;28;20035;-64
2023/07/01 02:56:29;;;;;;;2.97;1.35;;;16.30;99.90;;;;;;4966644;28;20030;-64
2023/07/01 02:58:55;;;;;;;3.75;1.45;;;16.40;99.90;;;;;;4961285;28;20027;-65
2023/07/01 03:01:20;;;;;;;3.05;1.85;;;16.40;99.90;;;;;;4953923;28;20122;-64
2023/07/01 03:03:49;;;;;;;4.53;1.70;;;16.40;99.90;;;;;;4950863;28;20023;-63
2023/07/01 03:06:15;;;;;;;4.57;1.67;;;16.40;99.90;;;;;;4952638;28;20023;-65
2023/07/01 03:08:41;;;;;;;2.83;1.58;;;16.40;99.90;;;;;;4950246;28;20027;-63
2023/07/01 03:11:07;;;;;;;5.22;2.13;;;16.50;99.90;;;;;;4951822;28;20393;-64
2023/07/01 03:13:33;;;;;;;4.35;2.05;;;16.50;99.90;;;;;;4963970;28;20027;-65
2023/07/01 03:15:59;;;;;;;3.30;1.50;;;16.50;99.90;;;;;;4957922;28;20023;-64
2023/07/01 03:18:24;;;;;;;1.70;1.35;;;16.50;99.90;;;;;;4959845;28;20079;-64
2023/07/01 03:20:50;;;;;;;3.42;1.40;;;16.50;99.90;;;;;;4957303;28;20019;-60
2023/07/01 03:23:16;;;;;;;4.53;2.20;;;16.50;99.90;;;;;;4960179;28;20031;-64
2023/07/01 03:25:41;;;;;;;3.75;1.83;;;16.50;99.90;;;;;;4963667;28;20019;-64
2023/07/01 03:28:08;;;;;;;4.10;1.77;;;16.50;99.90;;;;;;4970315;28;20035;-63
2023/07/01 03:30:34;;;;;;;2.65;1.50;;;16.50;99.90;;;;;;4954379;28;20568;-64
2023/07/01 03:33:00;;;;;;;1.73;1.52;;;16.50;99.90;;;;;;4954845;28;20059;-64
2023/07/01 03:35:26;;;;;;;2.45;1.40;;;16.50;99.90;;;;;;4965507;28;20030;-63
2023/07/01 03:37:52;;;;;;;2.13;1.13;;;16.60;99.90;;;;;;4956606;28;20122;-64
2023/07/01 03:40:18;;;;;;;2.58;2.10;;;16.60;99.90;;;;;;4961952;28;20517;-65
2023/07/01 03:42:44;;;;;;;3.38;1.75;;;16.50;99.90;;;;;;4955482;28;20031;-62
2023/07/01 03:45:11;;;;;;;5.25;1.42;;;16.60;99.90;;;;;;4951310;28;20139;-65
2023/07/01 03:47:43;;;;;;;2.33;1.60;;;16.60;99.90;;;;;;4956930;28;20039;-63
2023/07/01 03:50:09;;;;;;;1.80;1.50;;;16.50;99.90;;;;;;4955325;28;20035;-63
2023/07/01 03:52:39;;;;;;;5.50;1.33;;;16.60;99.90;;;;;;4957325;28;20038;-64
2023/07/01 03:55:06;;;;;;;3.40;1.52;;;16.60;99.90;;;;;;4965810;28;20027;-64
2023/07/01 03:57:33;;;;;;;2.45;1.77;;;16.60;99.90;;;;;;4959199;28;20038;-65
2023/07/01 03:59:59;;;;;;;4.13;1.85;;;16.60;99.90;;;;;;4956221;28;20404;-63
2023/07/01 04:02:25;;;;;;;3.30;1.33;;;16.60;99.90;;;;;;4964514;28;20619;-64
2023/07/01 04:04:51;;;;;;;3.72;1.80;;;16.70;99.90;;;;;;4961109;28;20420;-64
2023/07/01 04:07:21;;;;;;;4.47;1.63;;;16.70;99.90;;;;;;4967537;28;20023;-65
2023/07/01 04:09:50;;;;;;;2.28;1.40;;;16.70;99.90;;;;;;4961060;28;20480;-65
2023/07/01 04:12:16;;;;;;;2.70;1.58;;;16.80;99.90;;;;;;4964824;28;20031;-64
2023/07/01 04:14:42;;;;;;;4.25;1.70;;;16.80;99.90;;;;;;4955689;28;20015;-62
2023/07/01 04:17:07;;;;;;;3.00;1.45;;;16.80;99.90;;;;;;4958202;28;20451;-64
2023/07/01 04:19:33;;;;;;;5.13;1.73;;;16.80;99.90;;;;;;4958244;28;20030;-63
2023/07/01 04:21:59;;;;;;;3.00;1.58;;;16.80;99.90;;;;;;4955536;28;20129;-65
2023/07/01 04:24:24;;;;;;;2.80;1.58;;;16.90;99.90;;;;;;4963075;28;20034;-64
2023/07/01 04:26:50;;;;;;;2.50;1.48;;;16.90;99.90;;;;;;4961982;28;20388;-65
2023/07/01 04:29:15;;;;;;;3.20;1.77;;;16.90;99.90;;;;;;4953965;28;20032;-64
2023/07/01 04:31:41;;;;;;;2.60;1.63;;;17.00;99.90;;;;;;4954674;28;20038;-63
2023/07/01 04:34:07;;;;;;;3.90;1.42;;;17.10;99.90;;;;;;4956562;28;20142;-66
2023/07/01 04:36:32;;;;;;;4.47;1.35;;;17.10;99.90;;;;;;4960074;28;20109;-65
2023/07/01 04:38:58;;;;;;;2.70;1.75;;;17.20;99.90;;;;;;4953484;28;20396;-64
2023/07/01 04:41:24;;;;;;;2.95;1.80;;;17.30;99.90;;;;;;4952254;28;20031;-65
2023/07/01 04:43:50;;;;;;;5.20;1.30;;;17.30;99.90;;;;;;4952120;28;20030;-65
2023/07/01 04:46:15;;;;;;;3.63;1.50;;;17.30;99.90;;;;;;4950675;28;20023;-62
2023/07/01 04:48:41;;;;;;;5.32;1.58;;;17.30;99.90;;;;;;4957215;28;20121;-61
2023/07/01 04:51:07;;;;;;;7.05;1.90;;;17.40;99.90;;;;;;4951748;28;20031;-66
2023/07/01 04:53:32;;;;;;;2.67;1.73;;;17.50;99.90;;;;;;4959537;28;20022;-64
2023/07/01 04:55:58;;;;;;;4.38;1.58;;;17.50;99.90;;;;;;4952589;28;20035;-63
2023/07/01 04:58:23;;;;;;;4.28;1.77;;;17.50;99.90;;;;;;4958140;28;20031;-64
2023/07/01 05:00:50;;;;;;;2.08;1.70;;;17.60;99.90;;;;;;4960297;28;20050;-64
2023/07/01 05:03:16;;;;;;;3.53;1.75;;;17.60;99.90;;;;;;4964020;28;20504;-62
2023/07/01 05:05:41;;;;;;;2.30;1.42;;;17.60;99.90;;;;;;4957716;28;20034;-65
2023/07/01 05:08:07;;;;;;;3.30;1.73;;;17.60;99.90;;;;;;4958513;28;20038;-63
2023/07/01 05:10:32;;;;;;;4.80;1.65;;;17.60;99.90;;;;;;4960522;28;20672;-65
2023/07/01 05:12:58;;;;;;;4.18;1.75;;;17.60;99.90;;;;;;4961992;28;20484;-63
2023/07/01 05:15:24;;;;;;;2.80;1.58;;;17.70;99.90;;;;;;4957553;28;20035;-64
2023/07/01 05:17:49;;;;;;;2.95;1.58;;;17.80;99.90;;;;;;4954551;28;20035;-66
2023/07/01 05:20:15;;;;;;;2.72;1.65;;;17.80;99.90;;;;;;4962075;28;20110;-63
2023/07/01 05:22:41;;;;;;;2.95;1.40;;;17.90;99.90;;;;;;4954199;28;20027;-64
2023/07/01 05:25:07;;;;;;;8.05;1.65;;;18.10;99.90;;;;;;4953165;28;20057;-64
2023/07/01 05:27:32;;;;;;;3.88;1.42;;;18.20;99.90;;;;;;4961432;28;20030;-64
2023/07/01 05:29:58;;;;;;;4.85;1.58;;;18.30;99.90;;;;;;4958084;28;20098;-64
2023/07/01 05:32:24;;;;;;;10.90;1.60;;;18.40;99.90;;;;;;4951094;28;20031;-64
2023/07/01 05:34:49;;;;;;;2.50;1.38;;;18.40;99.90;;;;;;4960753;28;20102;-64
2023/07/01 05:37:15;;;;;;;6.47;2.05;;;18.50;99.90;;;;;;4957654;28;20070;-64
2023/07/01 05:39:41;;;;;;;4.03;1.60;;;18.40;99.90;;;;;;4958375;28;20034;-65
2023/07/01 05:42:07;;;;;;;4.53;1.83;;;18.50;99.90;;;;;;4959986;28;20042;-65
2023/07/01 05:44:32;;;;;;;3.05;1.45;;;18.60;99.60;;;;;;4953294;28;20027;-65
2023/07/01 05:46:58;;;;;;;7.30;1.50;;;18.60;99.90;;;;;;4952543;28;20031;-64
2023/07/01 05:49:24;;;;;;;3.60;1.90;;;18.60;99.30;;;;;;4951638;28;20027;-62
2023/07/01 05:51:49;;;;;;;5.18;1.58;;;18.70;99.10;;;;;;4955109;28;20031;-66
2023/07/01 05:54:15;;;;;;;2.80;1.40;;;18.80;98.90;;;;;;4954229;28;20038;-63
2023/07/01 05:56:41;;;;;;;3.13;1.90;;;18.70;99.10;;;;;;4956112;28;20034;-59
2023/07/01 05:59:06;;;;;;;6.15;2.33;;;18.80;98.70;;;;;;4954649;28;20059;-64
2023/07/01 06:01:32;;;;;;;2.55;1.42;;;18.70;98.30;;;;;;4953519;28;20745;-64
2023/07/01 06:03:57;;;;;;;2.30;1.75;;;18.70;98.50;;;;;;4960249;28;20426;-65
2023/07/01 06:06:23;;;;;;;3.15;1.70;;;18.60;98.90;;;;;;4960693;28;20035;-64
2023/07/01 06:08:49;;;;;;;3.85;1.27;;;18.70;98.70;;;;;;4960098;28;20039;-62
2023/07/01 06:11:15;;;;;;;3.30;1.65;;;18.70;98.70;;;;;;4966435;28;20255;-63
2023/07/01 06:13:47;;;;;;;3.78;1.65;;;18.50;98.70;;;;;;4962745;28;20038;-65
2023/07/01 06:16:13;;;;;;;3.60;1.70;;;18.40;99.10;;;;;;4968281;28;20052;-66
2023/07/01 06:18:41;;;;;;;6.18;1.63;;;18.40;99.10;;;;;;4961942;28;20027;-63
2023/07/01 06:21:06;;;;;;;10.57;2.75;;;18.40;99.30;;;;;;4959251;28;20046;-65
2023/07/01 06:23:36;;;;;;;3.45;1.95;;;18.30;99.40;;;;;;4961723;28;20019;-64
2023/07/01 06:26:02;;;;;;;6.80;1.98;;;18.50;99.60;;;;;;4965051;28;20031;-64
2023/07/01 06:28:28;;;;;;;2.70;1.50;;;18.50;99.60;;;;;;4966574;28;20507;-64
2023/07/01 06:30:53;;;;;;;2.83;1.63;;;18.60;99.50;;;;;;4958931;28;20106;-64
2023/07/01 06:33:19;;;;;;;3.38;1.60;;;18.70;99.40;;;;;;4962096;28;20054;-65
2023/07/01 06:35:45;;;;;;;3.15;1.73;;;18.60;99.50;;;;;;4958966;28;20817;-65
2023/07/01 06:38:11;;;;;;;3.33;1.83;;;18.50;99.70;;;;;;4959321;28;20039;-64
2023/07/01 06:40:37;;;;;;;4.50;1.90;;;18.50;99.90;;;;;;4959302;28;20617;-65
2023/07/01 06:43:03;;;;;;;4.93;1.80;;;18.60;99.70;;;;;;4953770;28;20038;-63
2023/07/01 06:45:29;;;;;;;3.15;1.83;;;18.60;99.60;;;;;;4953891;28;20023;-65
2023/07/01 06:47:55;;;;;;;3.97;1.80;;;18.50;99.90;;;;;;4954471;28;20027;-65
2023/07/01 06:50:20;;;;;;;3.95;1.77;;;18.50;99.90;;;;;;4962636;28;20019;-64
2023/07/01 06:52:46;;;;;;;6.70;1.92;;;18.40;99.90;;;;;;4963024;28;20028;-65
2023/07/01 06:55:15;;;;;;;8.13;1.90;;;18.50;99.90;;;;;;4955228;28;20650;-64
2023/07/01 06:57:41;;;;;;;3.17;1.88;;;18.50;99.90;;;;;;4953563;28;20054;-63
2023/07/01 07:00:13;;;;;;;3.90;1.73;;;18.60;99.90;;;;;;4956123;28;20031;-65
2023/07/01 07:02:39;;;;;;;4.22;2.50;;;18.70;99.90;;;;;;4952005;28;20109;-63
2023/07/01 07:05:06;;;;;;;3.67;1.90;;;18.70;99.90;;;;;;4956482;28;20027;-64
2023/07/01 07:07:32;;;;;;;2.70;1.58;;;18.80;99.90;;;;;;4955717;28;20100;-64
2023/07/01 07:09:58;;;;;;;3.45;1.75;;;18.80;99.90;;;;;;4964521;28;20061;-65
2023/07/01 07:12:25;;;;;;;4.25;1.80;;;18.70;99.90;;;;;;4967001;28;20077;-64
2023/07/01 07:14:51;;;;;;;2.60;1.70;;;18.70;99.90;;;;;;4967102;28;21215;-65
2023/07/01 07:17:16;;;;;;;3.65;2.00;;;18.60;99.90;;;;;;4965265;28;20110;-65
2023/07/01 07:19:42;;;;;;;3.38;2.40;;;18.40;99.90;;;;;;4958388;28;20028;-64
2023/07/01 07:22:08;;;;;;;2.75;2.08;;;18.40;99.90;;;;;;4961438;28;20122;-64
2023/07/01 07:24:33;;;;;;;2.42;1.83;;;18.20;99.90;;;;;;4962424;28;20022;-64
2023/07/01 07:27:00;;;;;;;3.47;2.00;;;18.10;99.90;;;;;;4967250;28;20035;-63
2023/07/01 07:29:27;;;;;;;5.50;2.10;;;18.10;99.90;;;;;;4962925;28;20023;-66
2023/07/01 07:31:52;;;;;;;5.20;2.10;;;18.10;99.90;;;;;;4960933;28;20113;-61
2023/07/01 07:34:18;;;;;;;3.67;2.88;;;18.10;99.90;;;;;;4964166;28;20145;-65
2023/07/01 07:36:44;;;;;;;3.08;2.08;;;18.10;99.90;;;;;;4958113;28;20048;-63
2023/07/01 07:39:12;;;;;;;6.88;2.33;;;18.30;99.90;;;;;;4957272;28;20689;-65
2023/07/01 07:41:39;;;;;;;4.60;2.10;;;18.30;99.90;;;;;;4958925;28;20030;-64
2023/07/01 07:44:04;;;;;;;7.25;2.42;;;18.30;99.90;;;;;;4957182;28;20105;-63
2023/07/01 07:46:30;;;;;;;3.65;1.83;;;18.60;99.90;;;;;;4952488;28;20036;-64
2023/07/01 07:48:55;;;;;;;5.40;1.77;;;18.60;99.90;;;;;;4953123;28;20065;-63
2023/07/01 07:51:21;;;;;;;3.72;2.08;;;18.90;99.90;;;;;;4958895;28;20401;-64
2023/07/01 07:53:47;;;;;;;4.10;1.95;;;19.40;99.90;;;;;;4952907;28;20031;-66
2023/07/01 07:56:13;;;;;;;6.57;2.47;;;19.50;99.90;;;;;;4955597;28;20031;-65
2023/07/01 07:58:38;;;;;;;10.05;2.25;;;19.30;99.90;;;;;;4958317;28;20445;-62
2023/07/01 08:01:04;;;;;;;3.47;1.75;;;19.50;99.90;;;;;;4955077;28;20023;-65
2023/07/01 08:03:29;;;;;;;5.82;1.95;;;19.50;99.90;;;;;;4946381;28;20101;-66
2023/07/01 08:05:55;;;;;;;4.93;1.70;;;19.50;99.90;;;;;;4960172;28;20041;-65
2023/07/01 08:08:20;;;;;;;2.92;1.80;;;19.50;99.90;;;;;;4948206;28;20038;-63
2023/07/01 08:10:46;;;;;;;2.35;1.58;;;19.50;99.90;;;;;;4963829;28;20515;-64
2023/07/01 08:13:13;;;;;;;5.65;1.67;;;19.80;99.90;;;;;;4969380;28;20126;-64
2023/07/01 08:15:40;;;;;;;2.65;1.80;;;19.80;99.90;;;;;;4959885;28;20031;-64
2023/07/01 08:18:06;;;;;;;3.10;1.70;;;19.80;99.90;;;;;;4959893;28;20035;-64
2023/07/01 08:20:31;;;;;;;6.35;2.10;;;19.70;99.90;;;;;;4969358;28;20226;-64
2023/07/01 08:22:57;;;;;;;2.90;1.50;;;19.60;99.90;;;;;;4956464;28;20038;-64
2023/07/01 08:25:22;;;;;;;3.65;1.40;;;19.60;99.90;;;;;;4953187;28;20030;-64
2023/07/01 08:27:48;;;;;;;3.50;1.90;;;19.80;99.90;;;;;;4952213;28;20165;-65
2023/07/01 08:30:14;;;;;;;3.38;1.70;;;19.70;99.90;;;;;;4963222;28;20043;-65
2023/07/01 08:32:41;;;;;;;3.97;1.80;;;19.70;99.90;;;;;;4963579;28;20023;-64
2023/07/01 08:35:07;;;;;;;6.15;1.60;;;19.80;99.90;;;;;;4960569;28;20587;-65
2023/07/01 08:37:33;;;;;;;3.50;1.65;;;19.70;99.90;;;;;;4962145;28;20031;-64
2023/07/01 08:39:58;;;;;;;2.40;1.77;;;19.60;99.90;;;;;;4959103;28;20035;-64
2023/07/01 08:42:31;;;;;;;2.50;1.55;;;19.20;99.90;;;;;;4953629;28;20031;-63
2023/07/01 08:44:57;;;;;;;4.38;1.80;;;19.00;99.90;;;;;;4961306;28;20023;-66
2023/07/01 08:47:24;;;;;;;3.58;1.92;;;18.80;99.90;;;;;;4952510;28;20038;-66
2023/07/01 08:49:53;;;;;;;3.30;1.67;;;19.00;99.90;;;;;;4953528;28;20112;-64
2023/07/01 08:52:21;;;;;;;5.28;1.60;;;18.80;99.90;;;;;;4960207;28;20496;-65
2023/07/01 08:54:48;;;;;;;5.40;1.90;;;18.80;99.90;;;;;;4949220;28;20515;-65
2023/07/01 08:57:15;;;;;;;4.78;1.90;;;18.60;99.90;;;;;;4952536;28;20039;-65
2023/07/01 08:59:42;;;;;;;3.25;1.55;;;18.70;99.90;;;;;;4955511;28;20023;-65
2023/07/01 09:02:08;;;;;;;2.25;1.58;;;18.70;99.90;;;;;;4961299;28;20062;-65
2023/07/01 09:04:37;;;;;;;5.30;1.63;;;18.80;99.90;;;;;;4954946;28;20100;-65
2023/07/01 09:07:03;;;;;;;10.13;1.90;;;18.80;99.90;;;;;;4948939;28;20421;-64
2023/07/01 09:09:29;;;;;;;6.15;1.70;;;18.60;99.90;;;;;;4959228;28;20489;-65
2023/07/01 09:11:55;;;;;;;2.65;1.40;;;18.50;99.90;;;;;;4962910;28;20038;-64
2023/07/01 09:14:20;;;;;;;4.80;2.00;;;18.30;99.90;;;;;;4958897;28;20042;-62
2023/07/01 09:16:46;;;;;;;4.90;1.73;;;18.10;99.90;;;;;;4962528;28;20037;-64
2023/07/01 09:19:16;;;;;;;3.80;2.20;;;18.00;99.90;;;;;;4955312;28;20035;-65
2023/07/01 09:21:43;;;;;;;4.28;1.67;;;18.00;99.90;;;;;;4964355;28;20023;-63
2023/07/01 09:24:10;;;;;;;3.47;1.70;;;18.10;99.90;;;;;;4958401;28;20026;-65
2023/07/01 09:26:36;;;;;;;2.83;1.88;;;18.10;99.90;;;;;;4956581;28;20059;-64
2023/07/01 09:29:15;;;;;;;2.72;1.90;;;18.00;99.90;;;;;;4963842;28;20037;-66
2023/07/01 09:31:49;;;;;;;4.05;2.10;;;18.20;99.90;;;;;;4956479;28;20026;-64
2023/07/01 09:34:16;;;;;;;2.28;1.65;;;18.50;99.90;;;;;;4949929;28;20489;-64
2023/07/01 09:36:42;;;;;;;2.13;1.58;;;18.70;99.90;;;;;;4955891;28;20114;-63
2023/07/01 09:39:08;;;;;;;12.95;1.75;;;18.80;99.90;;;;;;4957741;28;20134;-65
2023/07/01 09:41:34;;;;;;;7.72;2.13;;;18.90;99.90;;;;;;4953866;28;20177;-65
2023/07/01 09:44:00;;;;;;;2.10;1.35;;;19.30;99.90;;;;;;4953548;28;20023;-64
2023/07/01 09:46:43;;;;;;;1.80;1.60;;;19.40;99.90;;;;;;4950772;28;20435;-64
2023/07/01 09:49:10;;;;;;;1.73;1.40;;;19.40;99.90;;;;;;4954741;28;20484;-64
2023/07/01 09:51:48;;;;;;;2.65;1.75;;;19.60;99.90;;;;;;4954422;28;20086;-64
2023/07/01 09:54:27;;;;;;;2.47;1.35;;;19.30;99.90;;;;;;4954934;28;20504;-63
2023/07/01 09:56:55;;;;;;;1.58;1.48;;;19.30;99.90;;;;;;4952472;28;20046;-64
2023/07/01 09:59:21;;;;;;;2.50;1.35;;;19.30;99.90;;;;;;4953489;28;20404;-63
2023/07/01 10:01:50;;;;;;;1.90;1.27;;;19.30;99.90;;;;;;4955244;28;20050;-64
2023/07/01 10:04:18;;;;;;;3.47;2.08;;;19.10;99.90;;;;;;4957052;28;20415;-62
2023/07/01 10:06:44;;;;;;;2.15;1.33;;;19.00;99.90;;;;;;4946382;28;20039;-61
2023/07/01 10:09:10;;;;;;;3.60;1.67;;;19.00;99.90;;;;;;4964861;28;20034;-64
2023/07/01 10:11:37;;;;;;;1.42;1.30;;;18.90;99.90;;;;;;4956466;28;20027;-64
2023/07/01 10:14:04;;;;;;;1.90;1.20;;;18.70;99.90;;;;;;4959693;28;20035;-65
2023/07/01 10:16:30;;;;;;;4.32;1.77;;;18.70;99.90;;;;;;4958975;28;20034;-65
2023/07/01 10:18:56;;;;;;;2.53;1.30;;;18.80;99.90;;;;;;4963218;28;20085;-65
2023/07/01 10:21:24;;;;;;;2.22;1.50;;;18.80;99.90;;;;;;4962087;28;20034;-63
2023/07/01 10:23:51;;;;;;;3.50;1.35;;;19.10;99.90;;;;;;4957182;28;20478;-64
2023/07/01 10:26:34;;;;;;;5.25;1.42;;;19.10;99.90;;;;;;4967915;28;20404;-64
2023/07/01 10:29:18;;;;;;;2.78;1.55;;;19.20;99.90;;;;;;4956814;28;20599;-63
2023/07/01 10:32:09;;;;;;;3.40;1.48;;;19.10;99.90;;;;;;4949966;28;20050;-64
2023/07/01 10:34:53;;;;;;;1.88;1.42;;;19.00;99.90;;;;;;4957362;28;20023;-65
2023/07/01 10:37:22;;;;;;;;;;;18.90;99.90;;;;;;4953002;28;20039;-64
2023/07/01 10:39:48;;;;;;;2.25;1.67;;;19.10;99.90;;;;;;4954744;28;19958;-65
2023/07/01 10:42:32;;;;;;;1.80;1.40;;;19.30;99.90;;;;;;4952471;28;20569;-64
2023/07/01 10:45:12;;;;;;;1.95;1.30;;;19.50;99.90;;;;;;4955896;28;20027;-64
2023/07/01 10:47:38;;;;;;;3.65;1.02;;;19.60;99.90;;;;;;4952609;28;20393;-64
2023/07/01 10:50:05;;;;;;;2.03;1.30;;;19.70;99.90;;;;;;4962846;28;20022;-65
2023/07/01 10:52:32;;;;;;;1.83;1.13;;;19.80;99.90;;;;;;4953959;28;20051;-63
2023/07/01 10:55:00;;;;;;;3.28;1.20;;;19.80;99.90;;;;;;4958182;28;20027;-64
2023/07/01 10:57:26;;;;;;;3.83;1.50;;;19.70;99.90;;;;;;4954055;28;20022;-64
2023/07/01 11:00:30;;;;;;;2.70;1.58;;;19.50;99.90;;;;;;4957829;28;20489;-64
2023/07/01 11:02:56;;;;;;;1.90;1.27;;;19.50;99.90;;;;;;4955247;28;20034;-63
2023/07/01 11:05:28;;;;;;;2.88;1.38;;;19.40;99.90;;;;;;4952539;28;20043;-64
2023/07/01 11:07:55;;;;;;;3.13;1.40;;;19.40;99.90;;;;;;4954027;28;20023;-65
2023/07/01 11:10:21;;;;;;;1.10;1.00;;;19.50;99.90;;;;;;4959120;28;20035;-64
2023/07/01 11:12:46;;;;;;;2.55;1.50;;;19.20;99.90;;;;;;4957485;28;20027;-63
2023/07/01 11:15:17;;;;;;;1.40;1.20;;;19.20;99.90;;;;;;4963208;28;20038;-63
2023/07/01 11:18:01;;;;;;;1.58;1.23;;;19.30;99.90;;;;;;4959273;28;20041;-65
2023/07/01 11:20:45;;;;;;;1.40;1.13;;;19.40;99.90;;;;;;4961962;28;20440;-64
2023/07/01 11:23:11;;;;;;;1.65;1.05;;;19.40;99.90;;;;;;4957388;28;20035;-64
2023/07/01 11:25:42;;;;;;;1.67;1.38;;;19.40;99.90;;;;;;4961638;28;20396;-63
2023/07/01 11:28:08;;;;;;;2.45;1.50;;;19.40;99.90;;;;;;4958166;28;20055;-64
2023/07/01 11:30:33;;;;;;;2.53;1.35;;;19.70;99.90;;;;;;4958263;28;20047;-62
2023/07/01 11:33:12;;;;;;;1.67;1.20;;;19.80;99.90;;;;;;4957053;28;20185;-64
2023/07/01 11:35:55;;;;;;;1.23;1.10;;;20.10;99.90;;;;;;4953293;28;20499;-64
2023/07/01 11:38:27;;;;;;;1.10;1.00;;;20.00;99.90;;;;;;4953013;28;20032;-63
2023/07/01 11:40:53;;;;;;;3.60;0.68;;;19.80;99.90;;;;;;4958568;28;20110;-64
2023/07/01 11:43:21;;;;;;;0.77;0.77;;;19.60;99.90;;;;;;4963614;28;20035;-65
2023/07/01 11:45:48;;;;;;;0.65;0.60;;;19.50;99.90;;;;;;4955673;28;20019;-64
2023/07/01 11:48:14;;;;;;;1.42;0.95;;;19.60;99.90;;;;;;4958666;28;20492;-65
2023/07/01 11:50:52;;;;;;;1.25;1.15;;;19.50;99.90;;;;;;4955223;28;20059;-64
2023/07/01 11:53:18;;;;;;;1.73;1.27;;;19.50;99.90;;;;;;4953802;28;20035;-64
2023/07/01 11:55:43;;;;;;;0.73;0.73;;;19.40;99.90;;;;;;4966090;28;20031;-61
2023/07/01 11:58:28;;;;;;;1.42;0.98;;;19.40;99.90;;;;;;4961087;28;20496;-64
2023/07/01 12:00:54;;;;;;;2.53;0.93;;;19.00;99.90;;;;;;4957734;28;20039;-66
2023/07/01 12:03:20;;;;;;;2.85;0.93;;;18.90;99.90;;;;;;4957364;28;20071;-63
2023/07/01 12:05:46;;;;;;;1.15;1.00;;;18.90;99.90;;;;;;4942922;28;20052;-64
2023/07/01 12:08:12;;;;;;;1.73;1.42;;;18.80;99.90;;;;;;4952288;28;20027;-64
2023/07/01 12:10:39;;;;;;;1.48;1.00;;;18.80;99.90;;;;;;4960166;28;20097;-64
2023/07/01 12:13:05;;;;;;;1.10;1.00;;;18.80;99.90;;;;;;4961383;28;20485;-63
2023/07/01 12:15:33;;;;;;;1.70;1.20;;;18.70;99.90;;;;;;4945286;28;20038;-63
2023/07/01 12:18:27;;;;;;;2.90;1.42;;;18.60;99.90;;;;;;4958940;28;20487;-64
2023/07/01 12:20:54;;;;;;;1.40;1.30;;;18.50;99.90;;;;;;4960145;28;20027;-64
2023/07/01 12:23:19;;;;;;;1.60;1.27;;;18.50;99.90;;;;;;4960037;28;20042;-66
2023/07/01 12:25:45;;;;;;;1.30;1.13;;;18.40;99.90;;;;;;4959124;28;20030;-64
2023/07/01 12:28:11;;;;;;;1.35;1.20;;;18.50;99.90;;;;;;4955602;28;20496;-64
2023/07/01 12:30:36;;;;;;;1.73;1.42;;;18.60;99.90;;;;;;4956827;28;20031;-64
2023/07/01 12:33:02;;;;;;;1.30;1.20;;;18.70;99.90;;;;;;4956761;28;20488;-62
2023/07/01 12:35:28;;;;;;;2.22;1.48;;;18.90;99.90;;;;;;4959911;28;20050;-60
2023/07/01 12:37:56;;;;;;;1.40;1.30;;;19.00;99.90;;;;;;4959351;28;20097;-57
2023/07/01 12:40:24;;;;;;;1.50;1.40;;;19.20;99.90;;;;;;4963400;28;20047;-63
2023/07/01 12:42:51;;;;;;;1.27;1.08;;;19.30;99.90;;;;;;4952317;28;20034;-63
2023/07/01 12:45:16;;;;;;;1.70;1.30;;;19.40;99.90;;;;;;4953840;28;20031;-64
2023/07/01 12:47:43;;;;;;;1.10;1.00;;;19.50;99.90;;;;;;4960615;28;20039;-62
2023/07/01 12:50:11;;;;;;;1.70;1.20;;;19.50;99.90;;;;;;4962517;28;20023;-64